map of RTM home
RTM - Airport
Location
City:  Rotterdam, Zuid-Holland (South Holland), Netherlands
Name:Rotterdam The Hague Airport
ICAO:EHRD
IATA:RTM

Details
Type:Airport (Aerodrome, Airfield)
Use:Public/Civil, International (customs port of entry)
Latitude:5157'25"N (51.956944)
Longitude:426'14"E (4.437222)
Datum:WGS 1984
Elevation:-15 ft (-4 m)
Variation:1.07E (WMM2015 magnetic declination)
0.14 annual change
Runways:1
Longest:7218 × 148 ft (2200 × 45 m), paved

Time
Time Zone:UTC+1 (DST+2)
Local Time:

Weather
METAR:EHRD 241125Z AUTO 09016KT 060V120 9999 NSC 03/M07 Q1025 NOSIG
TAF:EHRD 241111Z 2412/2518 08016G26KT CAVOK
BECMG 2419/2422 08013KT
TEMPO 2511/2517 08015G25KT

Related Locations
Nearby:
Farthest:CHT: 11866 mi / 19096 km
Waitangi [Tuuta], CIT, NZ

Find:

   beyond  
but within

Other Information
Maps:
NOTAMs:
Links:
Sources:

  
flag of Netherlands
flag of Zuid-Holland (South Holland)
flag of Rotterdam
  

Sectional Chart

Flight Planning
at skyvector.com

Satellite Image

Google Maps Satellite view

 

Copyright © 2004-2018 Karl L. Swartz. All rights reserved.
The Great Circle Mapper name and logo are trademarks of the Great Circle Mapper.
All other trademarks mentioned herein belong to their respective owners.
Please see credits for attibutions and further copyright information.

  Follow gcmap on Facebook Follow gcmap on Twitter Follow gcmap on Google+ GCmap on LinkedIn

hCard Microformat

Geo Microformat